Time;durP1;ratioP1;P1;durP2;ratioP2;P2;SDS_P1;SDS_P2;PMS_P1;PMS_P2;Temp;Humidity;BMP_temperature;BMP_pressure;BME280_temperature;BME280_humidity;BME280_pressure;Samples;Min_cycle;Max_cycle;Signal;HPM_P1;HPM_P2
2022/03/02 00:07:51;;;;;;;4.55;3.35;;;;;;;-148.93;100.00;62180.91;20802908;28;20495;-80
2022/03/02 00:17:53;;;;;;;4.18;3.50;;;;;;;-148.93;100.00;62180.91;20800704;28;20068;-79
2022/03/02 00:28:00;;;;;;;4.13;3.63;;;;;;;-148.93;100.00;62180.91;20776694;28;20048;-80
2022/03/02 00:38:03;;;;;;;4.35;3.60;;;;;;;-148.93;100.00;62180.91;20805065;28;20037;-80
2022/03/02 00:48:06;;;;;;;4.95;4.10;;;;;;;-148.93;100.00;62180.91;20814047;28;20053;-79
2022/03/02 00:58:08;;;;;;;4.57;3.33;;;;;;;-148.93;100.00;62180.91;20797753;28;20479;-79
2022/03/02 01:08:10;;;;;;;5.28;3.63;;;;;;;-148.93;100.00;62180.91;20808534;28;20111;-80
2022/03/02 01:18:11;;;;;;;4.15;3.63;;;;;;;-148.93;100.00;62180.91;20813868;28;20045;-80
2022/03/02 01:28:13;;;;;;;4.50;2.83;;;;;;;-148.93;100.00;62180.91;20794162;28;20048;-79
2022/03/02 01:51:29;;;;;;;5.40;4.03;;;;;;;-148.93;100.00;62180.91;21115120;22;20069;-80
2022/03/02 02:02:11;;;;;;;3.80;3.30;;;;;;;-148.93;100.00;62180.91;20784922;28;20100;-79
2022/03/02 02:12:37;;;;;;;4.15;3.08;;;;;;;-148.93;100.00;62180.91;20777214;28;20053;-80
2022/03/02 02:23:05;;;;;;;4.72;3.55;;;;;;;-148.93;100.00;62180.91;20689882;28;20045;-79
2022/03/02 02:33:15;;;;;;;4.03;3.30;;;;;;;-148.93;100.00;62180.91;20703358;28;20076;-79
2022/03/02 02:43:27;;;;;;;4.60;3.67;;;;;;;-148.93;100.00;62180.91;20687419;28;20042;-79
2022/03/02 02:53:39;;;;;;;4.85;4.05;;;;;;;-148.93;100.00;62180.91;20770846;28;20058;-79
2022/03/02 03:03:49;;;;;;;5.00;4.03;;;;;;;-148.93;100.00;62180.91;20782472;28;20053;-79
2022/03/02 03:13:56;;;;;;;6.40;4.68;;;;;;;-148.93;100.00;62180.91;20766119;28;20049;-79
2022/03/02 03:24:07;;;;;;;5.85;4.63;;;;;;;-148.93;100.00;62180.91;20776491;28;20413;-79
2022/03/02 03:34:21;;;;;;;5.43;4.37;;;;;;;-148.93;100.00;62180.91;20778839;28;20048;-80
2022/03/02 03:44:36;;;;;;;4.55;4.05;;;;;;;-148.93;100.00;62180.91;20761521;28;20219;-79
2022/03/02 03:54:54;;;;;;;5.35;4.47;;;;;;;-148.93;100.00;62180.91;20747746;28;20155;-80
2022/03/02 04:05:04;;;;;;;4.82;3.97;;;;;;;-148.93;100.00;62180.91;20778447;28;20041;-80
2022/03/02 04:15:18;;;;;;;5.80;3.70;;;;;;;-148.93;100.00;62180.91;20777998;28;20566;-80
2022/03/02 04:25:28;;;;;;;5.38;4.15;;;;;;;-148.93;100.00;62180.91;20744965;28;20068;-79
2022/03/02 04:35:48;;;;;;;6.53;4.32;;;;;;;-148.93;100.00;62180.91;20742493;28;20057;-80
2022/03/02 04:46:01;;;;;;;5.57;4.20;;;;;;;-148.93;100.00;62180.91;20772351;28;20136;-78
2022/03/02 04:56:34;;;;;;;5.23;4.17;;;;;;;-148.93;100.00;62180.91;20670393;28;20050;-80
2022/03/02 05:06:51;;;;;;;5.30;3.95;;;;;;;-148.93;100.00;62180.91;20672734;28;20500;-79
2022/03/02 05:17:00;;;;;;;4.90;4.07;;;;;;;-148.93;100.00;62180.91;20676063;28;20133;-79
2022/03/02 05:27:07;;;;;;;5.50;4.13;;;;;;;-148.93;100.00;62180.91;20692339;28;20407;-79
2022/03/02 05:37:21;;;;;;;5.83;4.53;;;;;;;-148.93;100.00;62180.91;20708403;28;20304;-78
2022/03/02 05:47:33;;;;;;;5.30;4.20;;;;;;;-148.93;100.00;62180.91;20677733;28;20058;-79
2022/03/02 05:57:43;;;;;;;5.22;4.13;;;;;;;-148.93;100.00;62180.91;20688025;28;20054;-79
2022/03/02 06:07:58;;;;;;;5.45;4.22;;;;;;;-148.93;100.00;62180.91;20695071;28;20412;-79
2022/03/02 06:18:17;;;;;;;5.40;3.78;;;;;;;-148.93;100.00;62180.91;20675301;28;20058;-78
2022/03/02 06:28:34;;;;;;;6.03;3.97;;;;;;;-148.93;100.00;62180.91;20712039;28;20042;-79
2022/03/02 06:38:45;;;;;;;4.20;3.42;;;;;;;-148.93;100.00;62180.91;20690627;28;20050;-79
2022/03/02 06:49:04;;;;;;;4.68;3.85;;;;;;;-148.93;100.00;62180.91;20713904;28;20069;-82
2022/03/02 06:59:28;;;;;;;5.03;3.70;;;;;;;-148.93;100.00;62180.91;20783547;28;20037;-81
2022/03/02 07:09:49;;;;;;;5.10;3.90;;;;;;;-148.93;100.00;62180.91;20780407;28;20422;-87
2022/03/02 07:20:11;;;;;;;4.72;3.80;;;;;;;-148.93;100.00;62180.91;20796192;28;20045;-88
2022/03/02 07:30:36;;;;;;;5.00;3.67;;;;;;;-148.93;100.00;62180.91;20766250;28;20140;-82
2022/03/02 07:40:48;;;;;;;5.75;3.17;;;;;;;-148.93;100.00;62180.91;20761456;28;20141;-81
2022/03/02 07:51:03;;;;;;;5.25;3.58;;;;;;;-148.93;100.00;62180.91;20791365;28;20144;-83
2022/03/02 08:01:19;;;;;;;4.43;3.63;;;;;;;-148.93;100.00;62180.91;20763308;28;20037;-83
2022/03/02 08:11:40;;;;;;;6.05;4.00;;;;;;;-148.93;100.00;62180.91;20761572;28;20557;-83
2022/03/02 08:22:31;;;;;;;5.82;4.63;;;;;;;-148.93;100.00;62180.91;20781064;28;20056;-80
2022/03/02 08:32:51;;;;;;;7.28;4.50;;;;;;;-148.93;100.00;62180.91;20823555;28;20053;-85
2022/03/02 08:43:10;;;;;;;6.85;5.10;;;;;;;-148.93;100.00;62180.91;20764309;28;20522;-81
2022/03/02 08:53:25;;;;;;;6.82;5.43;;;;;;;-148.93;100.00;62180.91;20792359;28;20049;-79
2022/03/02 09:04:07;;;;;;;6.32;4.60;;;;;;;-148.93;100.00;62180.91;20805399;28;20118;-81
2022/03/02 09:14:20;;;;;;;5.40;4.47;;;;;;;-148.93;100.00;62180.91;20802731;28;20048;-86
2022/03/02 09:24:37;;;;;;;5.93;4.55;;;;;;;-148.93;100.00;62180.91;20806254;28;20068;-83
2022/03/02 09:34:52;;;;;;;5.93;4.40;;;;;;;-148.93;100.00;62180.91;20769477;28;20380;-83
2022/03/02 09:45:14;;;;;;;8.45;5.22;;;;;;;-148.93;100.00;62180.91;20767574;28;20096;-83
2022/03/02 09:55:58;;;;;;;7.78;4.75;;;;;;;-148.93;100.00;62180.91;20813877;28;20053;-84
2022/03/02 10:06:08;;;;;;;5.43;4.50;;;;;;;-148.93;100.00;62180.91;20769301;28;20049;-83
2022/03/02 10:16:27;;;;;;;6.40;4.90;;;;;;;-148.93;100.00;62180.91;20768459;28;20082;-83
2022/03/02 10:27:11;;;;;;;7.00;5.22;;;;;;;-148.93;100.00;62180.91;20814942;28;20054;-83
2022/03/02 10:37:46;;;;;;;5.82;4.60;;;;;;;-148.93;100.00;62180.91;20772846;28;20097;-83
2022/03/02 10:48:47;;;;;;;5.80;4.60;;;;;;;-148.93;100.00;62180.91;20792607;28;20046;-83
2022/03/02 10:58:59;;;;;;;5.95;4.55;;;;;;;-148.93;100.00;62180.91;20781613;28;20060;-83
2022/03/02 11:09:10;;;;;;;6.00;4.47;;;;;;;-148.93;100.00;62180.91;20764869;28;20045;-83
2022/03/02 11:19:46;;;;;;;6.70;4.82;;;;;;;-148.93;100.00;62180.91;20801877;28;20053;-82
2022/03/02 11:30:18;;;;;;;6.68;4.97;;;;;;;-148.93;100.00;62180.91;20776517;28;20060;-81
2022/03/02 11:40:44;;;;;;;5.80;4.93;;;;;;;-148.93;100.00;62180.91;20776978;28;20091;-83
2022/03/02 11:51:02;;;;;;;7.32;5.15;;;;;;;-148.93;100.00;62180.91;20761451;28;20103;-85
2022/03/02 12:01:11;;;;;;;5.03;4.25;;;;;;;-148.93;100.00;62180.91;20790658;28;20057;-81
2022/03/02 12:11:46;;;;;;;5.00;4.10;;;;;;;-148.93;100.00;62180.91;20765735;28;20060;-81
2022/03/02 12:22:08;;;;;;;6.82;4.68;;;;;;;-148.93;100.00;62180.91;20774606;28;20113;-81
2022/03/02 12:32:28;;;;;;;5.45;4.40;;;;;;;-148.93;100.00;62180.91;20778173;28;20103;-81
2022/03/02 12:42:51;;;;;;;5.50;4.05;;;;;;;-148.93;100.00;62180.91;20810645;28;20445;-80
2022/03/02 12:53:22;;;;;;;4.97;4.30;;;;;;;-148.93;100.00;62180.91;20792351;28;20407;-80
2022/03/02 13:03:53;;;;;;;5.18;4.05;;;;;;;-148.93;100.00;62180.91;20796014;28;20049;-80
2022/03/02 13:14:37;;;;;;;5.03;4.30;;;;;;;-148.93;100.00;62180.91;20774420;28;20587;-89
2022/03/02 13:24:58;;;;;;;5.03;4.13;;;;;;;-148.93;100.00;62180.91;20787245;28;20084;-80
2022/03/02 13:35:53;;;;;;;5.40;4.30;;;;;;;-148.93;100.00;62180.91;20805046;28;20041;-80
2022/03/02 13:46:44;;;;;;;;;;;;;;;-148.93;100.00;62180.91;20811101;28;20056;-80
2022/03/02 13:57:03;;;;;;;6.75;4.85;;;;;;;-148.93;100.00;62180.91;20783881;28;20367;-80
2022/03/02 14:07:24;;;;;;;5.55;4.50;;;;;;;-148.93;100.00;62180.91;20714521;28;20088;-79
2022/03/02 14:17:46;;;;;;;6.13;4.65;;;;;;;-148.93;100.00;62180.91;20718610;28;20104;-79
2022/03/02 14:28:08;;;;;;;6.03;4.60;;;;;;;-148.93;100.00;62180.91;20703509;28;20132;-80
2022/03/02 14:38:30;;;;;;;5.50;4.30;;;;;;;-148.93;100.00;62180.91;20731836;28;20045;-79
2022/03/02 14:48:42;;;;;;;6.38;4.65;;;;;;;-148.93;100.00;62180.91;20700148;28;20104;-80
2022/03/02 14:59:00;;;;;;;5.30;4.47;;;;;;;-148.93;100.00;62180.91;20713443;28;20050;-79
2022/03/02 15:09:11;;;;;;;5.63;4.40;;;;;;;-148.93;100.00;62180.91;20675700;28;20046;-79
2022/03/02 15:19:29;;;;;;;6.43;4.88;;;;;;;-148.93;100.00;62180.91;20713435;28;20053;-79
2022/03/02 15:30:16;;;;;;;10.73;4.60;;;;;;;-148.93;100.00;62180.91;20794060;28;20396;-79
2022/03/02 15:40:56;;;;;;;6.25;4.55;;;;;;;-148.93;100.00;62180.91;20794365;28;20055;-79
2022/03/02 15:51:25;;;;;;;6.87;4.80;;;;;;;-148.93;100.00;62180.91;20765031;28;20593;-79
2022/03/02 16:01:42;;;;;;;7.75;4.43;;;;;;;-148.93;100.00;62180.91;20777864;28;20100;-79
2022/03/02 16:12:01;;;;;;;6.20;4.60;;;;;;;-148.93;100.00;62180.91;20777786;28;20065;-79
2022/03/02 16:22:29;;;;;;;5.75;4.53;;;;;;;-148.93;100.00;62180.91;20775931;28;20050;-79
2022/03/02 16:32:47;;;;;;;5.03;4.37;;;;;;;-148.93;100.00;62180.91;20776936;28;20045;-80
2022/03/02 16:43:28;;;;;;;5.28;4.22;;;;;;;-148.93;100.00;62180.91;20808303;28;20044;-79
2022/03/02 16:54:00;;;;;;;4.82;4.18;;;;;;;-148.93;100.00;62180.91;20746285;28;20058;-79
2022/03/02 17:04:24;;;;;;;5.07;4.03;;;;;;;-148.93;100.00;62180.91;20712388;28;20049;-78
2022/03/02 17:15:10;;;;;;;5.50;3.70;;;;;;;-148.93;100.00;62180.91;20714055;28;20073;-79
2022/03/02 17:25:37;;;;;;;5.20;4.03;;;;;;;-148.93;100.00;62180.91;20704271;28;20132;-79
2022/03/02 17:36:08;;;;;;;5.03;4.05;;;;;;;-148.93;100.00;62180.91;20719926;28;20458;-79
2022/03/02 17:46:44;;;;;;;4.93;4.25;;;;;;;-148.93;100.00;62180.91;20734399;28;20056;-79
2022/03/02 17:57:25;;;;;;;5.43;4.40;;;;;;;-148.93;100.00;62180.91;20781926;28;20204;-81
2022/03/02 18:07:35;;;;;;;5.45;4.55;;;;;;;-148.93;100.00;62180.91;20799710;28;20132;-81
2022/03/02 18:17:51;;;;;;;5.93;4.78;;;;;;;-148.93;100.00;62180.91;20783684;28;20057;-80
2022/03/02 18:28:03;;;;;;;5.72;4.63;;;;;;;-148.93;100.00;62180.91;20770003;28;20089;-81
2022/03/02 18:38:18;;;;;;;6.63;4.75;;;;;;;-148.93;100.00;62180.91;20769817;28;20045;-79
2022/03/02 18:48:32;;;;;;;6.97;5.13;;;;;;;-148.93;100.00;62180.91;20766593;28;20054;-79
2022/03/02 18:59:13;;;;;;;4.90;4.38;;;;;;;-148.93;100.00;62180.91;20723247;28;20057;-79
2022/03/02 19:09:46;;;;;;;5.38;4.40;;;;;;;-148.93;100.00;62180.91;20706146;28;20053;-79
2022/03/02 19:20:32;;;;;;;5.85;4.07;;;;;;;-148.93;100.00;62180.91;20716735;28;20141;-80
2022/03/02 19:30:52;;;;;;;6.90;5.47;;;;;;;-148.93;100.00;62180.91;20720384;28;20060;-79
2022/03/02 19:41:14;;;;;;;5.90;4.72;;;;;;;-148.93;100.00;62180.91;20700974;28;20054;-79
2022/03/02 19:51:20;;;;;;;9.03;5.17;;;;;;;-148.93;100.00;62180.91;20679696;28;20577;-80
2022/03/02 20:01:40;;;;;;;6.53;5.13;;;;;;;-148.93;100.00;62180.91;20698012;28;20048;-80
2022/03/02 20:11:51;;;;;;;5.93;4.68;;;;;;;-148.93;100.00;62180.91;20728200;28;20053;-80
2022/03/02 20:22:10;;;;;;;6.50;5.18;;;;;;;-148.93;100.00;62180.91;20728977;28;20080;-80
2022/03/02 20:32:31;;;;;;;6.07;4.90;;;;;;;-148.93;100.00;62180.91;20684433;28;20046;-80
2022/03/02 20:42:46;;;;;;;5.55;4.95;;;;;;;-148.93;100.00;62180.91;20695291;28;20096;-80
2022/03/02 20:52:59;;;;;;;6.85;5.13;;;;;;;-148.93;100.00;62180.91;20742107;28;20081;-81
2022/03/02 21:03:16;;;;;;;6.50;5.13;;;;;;;-148.93;100.00;62180.91;20785120;28;20041;-80
2022/03/02 21:13:28;;;;;;;7.15;5.53;;;;;;;-148.93;100.00;62180.91;20780715;28;20045;-80
2022/03/02 21:24:04;;;;;;;7.15;5.85;;;;;;;-148.93;100.00;62180.91;20780059;28;20045;-80
2022/03/02 21:34:14;;;;;;;7.13;5.90;;;;;;;-148.93;100.00;62180.91;20783930;28;20049;-81
2022/03/02 21:44:25;;;;;;;6.22;4.93;;;;;;;-148.93;100.00;62180.91;20769307;28;20051;-80
2022/03/02 21:54:35;;;;;;;6.60;5.30;;;;;;;-148.93;100.00;62180.91;20762858;28;20068;-80
2022/03/02 22:04:47;;;;;;;7.57;5.55;;;;;;;-148.93;100.00;62180.91;20770435;28;20045;-80
2022/03/02 22:14:59;;;;;;;7.88;5.72;;;;;;;-148.93;100.00;62180.91;20768483;28;20061;-80
2022/03/02 22:25:16;;;;;;;7.90;5.63;;;;;;;-148.93;100.00;62180.91;20773064;28;20060;-81
2022/03/02 22:35:30;;;;;;;7.78;6.05;;;;;;;-148.93;100.00;62180.91;20763430;28;20045;-80
2022/03/02 22:45:42;;;;;;;9.13;6.13;;;;;;;-148.93;100.00;62180.91;20773571;28;20095;-80
2022/03/02 22:56:00;;;;;;;7.68;5.65;;;;;;;-148.93;100.00;62180.91;20783523;28;20135;-80
2022/03/02 23:17:37;;;;;;;7.03;5.60;;;;;;;-148.93;100.00;62180.91;20807315;28;20103;-81
2022/03/02 23:27:19;;;;;;;9.10;6.35;;;;;;;-148.93;100.00;62180.91;20776612;28;20261;-80
2022/03/02 23:37:29;;;;;;;6.55;5.60;;;;;;;-148.93;100.00;62180.91;20741458;28;20045;-80
2022/03/02 23:48:07;;;;;;;7.40;5.95;;;;;;;-148.93;100.00;62180.91;20781700;28;20038;-80
2022/03/02 23:58:23;;;;;;;7.78;6.03;;;;;;;-148.93;100.00;62180.91;20761614;28;20083;-80
